Chicopee, Missouri
Current Conditions -  °F | °C
As of 9:53 PM on Sunday 25 Jan 2015 (Local Time) from KPOF Reporting Station
Overcast Overcast  
Wind Chill: 32°   Ceiling: 2000
Heat Index: 40°   Visibility: 10mi
Dew Point: 33°   Wind: 15mph
Humidity: 77%   Direction: 330°NNW
Pressure: 29.91"   Gusts: NA
Location:  36.9608°N, 90.9923°W
Report Text: KPOF 260353Z AUTO 33013KT 10SM BKN020 OVC028 04/01 A2991 RMK AO2 PK WND 36030/0257 SLP132 T00440006
Loading
Personal Weather Stations






























Interactive Weather Map New forecast layout! Learn more

10-Day Weather Forecast

Advertisements
Track Severe Weather on mobile